Time;durP1;ratioP1;P1;durP2;ratioP2;P2;SDS_P1;SDS_P2;PMS_P1;PMS_P2;Temp;Humidity;BMP_temperature;BMP_pressure;BME280_temperature;BME280_humidity;BME280_pressure;Samples;Min_cycle;Max_cycle;Signal;HPM_P1;HPM_P2
2024/01/29 00:01:04;;;;;;;7.72;5.68;;;2.40;1.00;;;;;;6275753;22;20194;-88
2024/01/29 00:03:31;;;;;;;11.10;5.13;;;2.40;10.40;;;;;;6251994;23;20201;-88
2024/01/29 00:05:58;;;;;;;8.77;6.32;;;2.50;1.00;;;;;;6250788;23;20721;-88
2024/01/29 00:08:25;;;;;;;10.50;5.75;;;2.50;1.00;;;;;;6252005;23;20198;-88
2024/01/29 00:10:52;;;;;;;11.60;5.85;;;2.50;1.00;;;;;;6256572;23;20246;-88
2024/01/29 00:13:21;;;;;;;12.63;6.70;;;2.40;1.00;;;;;;6271006;23;20205;-88
2024/01/29 00:15:48;;;;;;;8.35;5.75;;;2.50;1.00;;;;;;6275446;22;20312;-89
2024/01/29 00:18:15;;;;;;;7.82;6.40;;;2.40;1.00;;;;;;6274866;22;20181;-86
2024/01/29 00:20:42;;;;;;;7.55;6.40;;;2.40;1.00;;;;;;6260675;22;20190;-88
2024/01/29 00:23:08;;;;;;;9.05;5.90;;;2.30;1.00;;;;;;6253226;23;20675;-89
2024/01/29 00:25:35;;;;;;;9.95;6.07;;;2.30;1.00;;;;;;6251811;23;20231;-88
2024/01/29 00:28:02;;;;;;;8.07;5.65;;;2.20;1.00;;;;;;6251778;23;20225;-88
2024/01/29 00:30:30;;;;;;;14.55;6.43;;;2.20;4.20;;;;;;6259904;23;20206;-88
2024/01/29 00:32:57;;;;;;;11.93;6.43;;;2.20;12.90;;;;;;6273790;23;20173;-87
2024/01/29 00:35:24;;;;;;;12.30;7.10;;;2.10;25.10;;;;;;6264844;23;20495;-88
2024/01/29 00:37:51;;;;;;;9.30;5.75;;;2.10;53.70;;;;;;6251817;23;20206;-88
2024/01/29 00:40:19;;;;;;;8.95;6.50;;;2.00;99.90;;;;;;6251359;23;20239;-89
2024/01/29 00:42:46;;;;;;;9.48;6.70;;;2.10;58.90;;;;;;6250987;23;20198;-89
2024/01/29 00:45:13;;;;;;;8.68;5.38;;;2.20;57.60;;;;;;6251776;23;20174;-88
2024/01/29 00:47:41;;;;;;;6.93;5.22;;;2.20;51.50;;;;;;6250716;23;20209;-89
2024/01/29 00:50:09;;;;;;;9.63;5.85;;;2.20;21.60;;;;;;6251747;23;20202;-88
2024/01/29 00:52:36;;;;;;;10.18;5.20;;;2.20;18.20;;;;;;6251695;23;20174;-88
2024/01/29 00:55:03;;;;;;;6.93;5.45;;;2.10;42.30;;;;;;6249988;23;20682;-88
2024/01/29 00:57:29;;;;;;;6.85;5.30;;;2.10;13.50;;;;;;6251774;23;20178;-89
2024/01/29 00:59:58;;;;;;;10.52;5.80;;;2.10;18.00;;;;;;6251225;23;20217;-88
2024/01/29 01:02:25;;;;;;;10.23;6.35;;;2.10;9.90;;;;;;6252629;23;20232;-88
2024/01/29 01:04:53;;;;;;;10.48;5.85;;;2.00;40.90;;;;;;6251636;23;20178;-88
2024/01/29 01:07:20;;;;;;;11.35;6.97;;;1.90;83.20;;;;;;6250538;23;20205;-88
2024/01/29 01:09:47;;;;;;;8.13;5.78;;;1.90;95.50;;;;;;6250947;23;20226;-88
2024/01/29 01:12:14;;;;;;;7.53;5.28;;;1.80;99.90;;;;;;6251726;23;20206;-87
2024/01/29 01:14:40;;;;;;;15.25;5.85;;;1.80;99.90;;;;;;6250619;23;20175;-88
2024/01/29 01:17:08;;;;;;;12.27;5.68;;;1.70;99.90;;;;;;6250212;23;20174;-88
2024/01/29 01:19:35;;;;;;;7.32;5.07;;;1.80;99.90;;;;;;6250235;23;20198;-88
2024/01/29 01:22:03;;;;;;;8.45;6.35;;;1.70;99.90;;;;;;6250681;23;20190;-89
2024/01/29 01:24:30;;;;;;;11.25;5.60;;;1.70;99.90;;;;;;6249958;23;20178;-89
2024/01/29 01:26:56;;;;;;;19.63;6.05;;;1.70;99.90;;;;;;6249853;23;20216;-89
2024/01/29 01:29:23;;;;;;;11.35;5.97;;;1.70;99.90;;;;;;6251111;23;20202;-88
2024/01/29 01:31:50;;;;;;;9.60;5.65;;;1.70;99.90;;;;;;6251394;23;20171;-87
2024/01/29 01:34:17;;;;;;;7.03;5.75;;;1.70;99.90;;;;;;6251202;23;20513;-87
2024/01/29 01:36:44;;;;;;;10.00;6.80;;;1.70;99.90;;;;;;6250436;23;20206;-88
2024/01/29 01:39:12;;;;;;;8.07;5.57;;;1.70;99.90;;;;;;6250513;23;20202;-88
2024/01/29 01:41:39;;;;;;;8.23;5.53;;;1.70;99.90;;;;;;6252600;23;20178;-89
2024/01/29 01:44:06;;;;;;;10.05;6.35;;;1.70;99.90;;;;;;6250694;23;20174;-88
2024/01/29 01:46:33;;;;;;;7.90;5.75;;;1.70;99.90;;;;;;6250755;23;20256;-88
2024/01/29 01:49:00;;;;;;;8.10;5.97;;;1.70;99.90;;;;;;6272433;23;20158;-86
2024/01/29 01:51:27;;;;;;;11.73;5.30;;;1.70;99.90;;;;;;6275367;22;20150;-86
2024/01/29 01:53:55;;;;;;;11.77;5.97;;;1.60;99.90;;;;;;6270740;22;20175;-89
2024/01/29 01:56:23;;;;;;;8.45;5.15;;;1.60;99.90;;;;;;6251696;23;20180;-88
2024/01/29 01:58:53;;;;;;;7.70;6.63;;;1.60;99.90;;;;;;6251134;23;20216;-88
2024/01/29 02:01:21;;;;;;;12.00;7.10;;;1.70;99.90;;;;;;6251047;23;20513;-88
2024/01/29 02:03:47;;;;;;;13.68;7.50;;;1.60;99.90;;;;;;6252412;23;20260;-88
2024/01/29 02:06:14;;;;;;;14.82;11.43;;;1.70;99.90;;;;;;6261495;23;20197;-88
2024/01/29 02:08:43;;;;;;;23.48;13.65;;;1.70;99.90;;;;;;6271832;23;20170;-87
2024/01/29 02:11:10;;;;;;;25.98;14.95;;;1.70;99.90;;;;;;6274135;22;20163;-85
2024/01/29 02:13:38;;;;;;;27.88;15.73;;;1.60;99.90;;;;;;6273731;22;20174;-87
2024/01/29 02:16:05;;;;;;;29.17;17.40;;;1.60;99.90;;;;;;6274935;22;20158;-87
2024/01/29 02:18:33;;;;;;;39.45;17.80;;;1.60;99.90;;;;;;6274956;22;20154;-86
2024/01/29 02:21:00;;;;;;;41.95;21.80;;;1.50;99.90;;;;;;6274635;22;20195;-86
2024/01/29 02:23:28;;;;;;;29.45;17.38;;;1.50;99.90;;;;;;6254679;23;20682;-88
2024/01/29 02:25:55;;;;;;;27.75;15.13;;;1.50;99.90;;;;;;6253539;23;20175;-88
2024/01/29 02:28:24;;;;;;;20.92;13.65;;;1.50;99.90;;;;;;6251652;23;20534;-86
2024/01/29 02:30:51;;;;;;;23.63;13.82;;;1.50;99.90;;;;;;6250906;23;20264;-88
2024/01/29 02:33:17;;;;;;;18.58;13.50;;;1.50;99.90;;;;;;6251976;23;20230;-88
2024/01/29 02:35:46;;;;;;;18.48;9.85;;;1.50;99.90;;;;;;6255637;23;20198;-88
2024/01/29 02:38:13;;;;;;;15.13;9.80;;;1.40;99.90;;;;;;6262288;23;20217;-88
2024/01/29 02:40:41;;;;;;;14.38;9.18;;;1.40;99.90;;;;;;6264008;23;20246;-88
2024/01/29 02:43:08;;;;;;;11.88;8.88;;;1.40;99.90;;;;;;6264542;23;20233;-87
2024/01/29 02:45:35;;;;;;;14.93;8.63;;;1.30;99.90;;;;;;6264896;23;20176;-88
2024/01/29 02:48:01;;;;;;;14.32;7.85;;;1.30;99.90;;;;;;6260449;23;20171;-88
2024/01/29 02:50:29;;;;;;;10.00;8.73;;;1.30;1.00;;;;;;6264899;23;20228;-88
2024/01/29 02:52:56;;;;;;;12.43;7.90;;;1.30;1.00;;;;;;6266526;23;20234;-88
2024/01/29 02:55:23;;;;;;;8.68;7.78;;;1.30;1.00;;;;;;6264955;23;20229;-88
2024/01/29 02:57:51;;;;;;;14.90;8.20;;;1.20;1.00;;;;;;6262955;23;20198;-88
2024/01/29 03:00:18;;;;;;;9.80;8.23;;;1.20;1.00;;;;;;6266638;23;20253;-88
2024/01/29 03:02:45;;;;;;;11.60;6.97;;;1.20;1.00;;;;;;6267215;23;20258;-88
2024/01/29 03:05:12;;;;;;;16.23;7.90;;;1.20;1.00;;;;;;6266754;23;20509;-88
2024/01/29 03:07:39;;;;;;;14.63;6.88;;;1.20;1.00;;;;;;6267981;23;20178;-88
2024/01/29 03:10:06;;;;;;;9.13;6.80;;;1.20;1.00;;;;;;6267875;23;20563;-89
2024/01/29 03:12:33;;;;;;;11.13;7.15;;;1.20;1.00;;;;;;6258630;23;20198;-88
2024/01/29 03:15:02;;;;;;;10.10;7.00;;;1.30;1.00;;;;;;6251797;23;20253;-88
2024/01/29 03:17:29;;;;;;;13.65;6.70;;;1.30;1.00;;;;;;6253046;23;20648;-88
2024/01/29 03:19:56;;;;;;;8.73;6.38;;;1.30;1.00;;;;;;6252336;23;20294;-88
2024/01/29 03:22:23;;;;;;;16.13;7.43;;;1.30;1.00;;;;;;6253805;23;20514;-88
2024/01/29 03:24:50;;;;;;;11.77;6.53;;;1.30;1.00;;;;;;6254272;23;20660;-88
2024/01/29 03:27:16;;;;;;;8.60;6.25;;;1.40;1.00;;;;;;6253217;23;20265;-88
2024/01/29 03:29:43;;;;;;;8.98;7.10;;;1.30;1.00;;;;;;6252545;23;20213;-88
2024/01/29 03:32:11;;;;;;;9.73;7.07;;;1.30;1.00;;;;;;6251073;23;20179;-88
2024/01/29 03:34:42;;;;;;;11.00;6.65;;;1.30;1.00;;;;;;6256586;23;20186;-88
2024/01/29 03:37:09;;;;;;;10.38;7.20;;;1.30;1.00;;;;;;6265646;22;20159;-88
2024/01/29 03:39:36;;;;;;;7.90;6.50;;;1.30;1.00;;;;;;6263771;23;20218;-88
2024/01/29 03:42:03;;;;;;;12.15;7.22;;;1.30;1.00;;;;;;6262229;23;20179;-88
2024/01/29 03:44:30;;;;;;;12.75;7.25;;;1.30;1.00;;;;;;6257240;23;20209;-88
2024/01/29 03:46:57;;;;;;;11.27;6.82;;;1.20;1.00;;;;;;6255901;23;20257;-89
2024/01/29 03:49:25;;;;;;;10.52;6.97;;;1.20;39.40;;;;;;6270861;22;20198;-88
2024/01/29 03:51:52;;;;;;;14.32;6.97;;;1.20;15.40;;;;;;6275576;22;20150;-88
2024/01/29 03:54:19;;;;;;;7.65;6.88;;;1.20;94.20;;;;;;6260047;23;20205;-88
2024/01/29 03:56:45;;;;;;;10.90;7.50;;;1.20;99.90;;;;;;6269986;23;20151;-87
2024/01/29 03:59:12;;;;;;;13.75;7.22;;;1.20;99.90;;;;;;6276157;22;20181;-88
2024/01/29 04:01:39;;;;;;;10.27;7.38;;;1.20;14.70;;;;;;6276087;22;20162;-88
2024/01/29 04:04:10;;;;;;;9.63;6.60;;;1.20;17.90;;;;;;6257059;23;20269;-88
2024/01/29 04:06:39;;;;;;;9.07;6.63;;;1.20;99.90;;;;;;6264984;23;20186;-87
2024/01/29 04:09:06;;;;;;;11.10;7.30;;;1.20;99.90;;;;;;6260633;23;20698;-88
2024/01/29 04:11:33;;;;;;;15.32;8.20;;;1.10;99.90;;;;;;6266266;23;20230;-87
2024/01/29 04:14:00;;;;;;;11.32;7.40;;;1.10;99.90;;;;;;6260855;23;20206;-88
2024/01/29 04:16:27;;;;;;;12.35;7.18;;;1.00;99.90;;;;;;6257769;23;20565;-88
2024/01/29 04:18:54;;;;;;;15.35;7.07;;;1.00;99.90;;;;;;6255642;23;20178;-87
2024/01/29 04:21:21;;;;;;;13.70;7.35;;;1.10;99.90;;;;;;6264262;22;20224;-88
2024/01/29 04:23:49;;;;;;;12.73;6.78;;;1.10;99.90;;;;;;6252325;23;20281;-87
2024/01/29 04:26:16;;;;;;;9.15;7.20;;;1.10;99.90;;;;;;6252198;23;20206;-88
2024/01/29 04:28:42;;;;;;;13.70;7.13;;;1.10;99.90;;;;;;6252404;23;20179;-87
2024/01/29 04:31:09;;;;;;;23.60;7.40;;;1.10;99.90;;;;;;6265080;22;20197;-87
2024/01/29 04:33:38;;;;;;;12.70;6.78;;;1.60;99.90;;;;;;6273855;23;20178;-88
2024/01/29 04:36:05;;;;;;;13.38;7.97;;;1.20;99.90;;;;;;6262403;23;20205;-88
2024/01/29 04:38:32;;;;;;;12.98;7.90;;;1.20;99.90;;;;;;6253038;23;20252;-88
2024/01/29 04:41:01;;;;;;;13.85;8.63;;;1.30;99.90;;;;;;6253717;23;20202;-88
2024/01/29 04:43:28;;;;;;;17.17;9.18;;;1.10;99.90;;;;;;6253735;23;20198;-87
2024/01/29 04:45:54;;;;;;;14.13;9.07;;;1.20;99.90;;;;;;6253496;23;20243;-88
2024/01/29 04:48:21;;;;;;;10.13;8.33;;;1.20;99.90;;;;;;6256687;23;20175;-88
2024/01/29 04:50:48;;;;;;;10.45;9.13;;;1.10;99.90;;;;;;6273259;22;20472;-88
2024/01/29 04:53:14;;;;;;;11.02;7.22;;;1.10;99.90;;;;;;6274706;23;20182;-88
2024/01/29 04:55:41;;;;;;;13.52;8.55;;;1.10;1.00;;;;;;6259993;23;20178;-87
2024/01/29 04:58:09;;;;;;;13.45;8.88;;;1.10;1.00;;;;;;6255434;23;20238;-87
2024/01/29 05:00:36;;;;;;;11.77;8.57;;;1.20;1.00;;;;;;6261600;22;20187;-87
2024/01/29 05:03:03;;;;;;;14.85;9.32;;;1.20;1.00;;;;;;6269959;22;20254;-88
2024/01/29 05:05:30;;;;;;;14.00;9.73;;;1.20;1.00;;;;;;6272007;23;20209;-88
2024/01/29 05:07:57;;;;;;;16.95;9.23;;;1.20;99.90;;;;;;6268796;23;20180;-88
2024/01/29 05:10:24;;;;;;;16.60;8.35;;;1.10;99.90;;;;;;6259556;23;20233;-87
2024/01/29 05:12:51;;;;;;;12.00;8.25;;;1.10;1.00;;;;;;6259366;23;20180;-87
2024/01/29 05:15:19;;;;;;;17.73;9.25;;;1.10;99.90;;;;;;6253304;23;20656;-88
2024/01/29 05:17:46;;;;;;;11.90;10.20;;;1.10;1.00;;;;;;6253839;23;20202;-88
2024/01/29 05:20:13;;;;;;;13.88;8.15;;;1.10;1.00;;;;;;6256839;23;20206;-88
2024/01/29 05:22:41;;;;;;;14.70;8.07;;;1.20;99.90;;;;;;6251859;23;20636;-88
2024/01/29 05:25:08;;;;;;;13.90;8.75;;;1.20;99.90;;;;;;6256882;23;20245;-88
2024/01/29 05:27:35;;;;;;;14.15;7.28;;;1.20;99.90;;;;;;6254197;23;20234;-88
2024/01/29 05:30:02;;;;;;;15.77;8.00;;;1.10;99.90;;;;;;6261411;23;20213;-87
2024/01/29 05:32:30;;;;;;;14.88;7.43;;;1.10;99.90;;;;;;6262647;23;20179;-87
2024/01/29 05:34:57;;;;;;;11.00;7.68;;;1.10;99.90;;;;;;6265169;23;20182;-88
2024/01/29 05:37:24;;;;;;;17.25;8.15;;;1.00;99.90;;;;;;6273617;22;20198;-90
2024/01/29 05:39:51;;;;;;;12.25;8.57;;;1.10;99.90;;;;;;6273408;23;20253;-88
2024/01/29 05:42:17;;;;;;;13.80;8.75;;;1.10;99.90;;;;;;6269582;23;20209;-89
2024/01/29 05:44:44;;;;;;;9.57;7.60;;;1.10;1.00;;;;;;6273193;23;20182;-88
2024/01/29 05:47:11;;;;;;;16.15;9.02;;;1.10;1.00;;;;;;6273382;23;20190;-88
2024/01/29 05:49:39;;;;;;;13.65;9.07;;;1.10;1.00;;;;;;6266222;23;20679;-88
2024/01/29 05:52:06;;;;;;;14.88;9.15;;;1.00;1.00;;;;;;6262576;23;20233;-87
2024/01/29 05:54:33;;;;;;;12.63;8.40;;;1.10;1.00;;;;;;6273687;23;20166;-88
2024/01/29 05:57:01;;;;;;;15.35;8.60;;;1.10;1.00;;;;;;6274828;22;20174;-88
2024/01/29 05:59:27;;;;;;;13.07;7.22;;;1.20;99.90;;;;;;6269473;22;20233;-88
2024/01/29 06:01:54;;;;;;;12.35;8.45;;;1.20;1.00;;;;;;6263521;23;20178;-89
2024/01/29 06:04:21;;;;;;;15.15;8.73;;;1.10;99.90;;;;;;6257165;23;20206;-88
2024/01/29 06:06:49;;;;;;;11.45;8.38;;;1.20;1.00;;;;;;6255589;23;20174;-87
2024/01/29 06:09:16;;;;;;;12.82;8.98;;;1.30;99.90;;;;;;6253264;23;20186;-87
2024/01/29 06:11:43;;;;;;;16.00;7.82;;;1.10;99.90;;;;;;6253480;23;20182;-88
2024/01/29 06:14:14;;;;;;;18.23;8.02;;;1.10;1.00;;;;;;6252237;23;20178;-87
2024/01/29 06:16:40;;;;;;;19.35;8.77;;;1.20;99.90;;;;;;6252864;23;20178;-87
2024/01/29 06:19:09;;;;;;;14.10;8.07;;;1.30;99.90;;;;;;6254096;23;20549;-87
2024/01/29 06:21:39;;;;;;;17.85;7.75;;;1.20;99.90;;;;;;6254413;23;20174;-88
2024/01/29 06:24:07;;;;;;;8.02;7.07;;;1.20;99.90;;;;;;6254497;23;20194;-87
2024/01/29 06:26:34;;;;;;;17.90;8.55;;;1.20;99.90;;;;;;6258770;23;20205;-87
2024/01/29 06:29:01;;;;;;;10.15;7.15;;;1.20;88.90;;;;;;6252751;23;20178;-87
2024/01/29 06:31:28;;;;;;;8.13;6.97;;;1.20;99.80;;;;;;6256444;23;20218;-88
2024/01/29 06:34:06;;;;;;;12.32;8.55;;;1.20;62.10;;;;;;6254455;23;20565;-90
2024/01/29 06:36:33;;;;;;;14.50;6.45;;;1.10;99.90;;;;;;6262053;23;20169;-88
2024/01/29 06:39:00;;;;;;;11.32;7.00;;;1.10;99.90;;;;;;6268270;23;20178;-87
2024/01/29 06:41:28;;;;;;;10.43;6.30;;;1.20;99.90;;;;;;6269119;23;20178;-88
2024/01/29 06:43:55;;;;;;;12.57;7.45;;;1.20;10.10;;;;;;6267666;23;20229;-88
2024/01/29 06:46:25;;;;;;;13.63;7.35;;;1.10;3.50;;;;;;6263980;23;20613;-88
2024/01/29 06:48:52;;;;;;;8.52;7.35;;;1.20;27.50;;;;;;6259577;23;20178;-87
2024/01/29 06:51:20;;;;;;;18.60;11.48;;;1.20;1.00;;;;;;6259126;23;20218;-88
2024/01/29 06:53:47;;;;;;;20.92;11.00;;;1.30;1.00;;;;;;6259445;23;20198;-87
2024/01/29 06:56:14;;;;;;;21.75;11.48;;;1.30;1.00;;;;;;6255823;23;20193;-87
2024/01/29 06:58:43;;;;;;;19.00;11.75;;;1.30;1.00;;;;;;6255173;23;20213;-87
2024/01/29 07:01:10;;;;;;;19.25;11.63;;;1.30;1.00;;;;;;6265219;22;20201;-88
2024/01/29 07:03:37;;;;;;;17.90;11.98;;;1.20;1.00;;;;;;6255706;23;20200;-87
2024/01/29 07:06:04;;;;;;;15.48;11.00;;;1.30;1.00;;;;;;6255355;23;20204;-88
2024/01/29 07:08:31;;;;;;;22.73;10.73;;;1.30;1.00;;;;;;6255990;23;20202;-87
2024/01/29 07:14:21;;;;;;;9.63;8.13;;;1.50;99.90;;;;;;6261267;23;20216;-86
2024/01/29 07:16:48;;;;;;;13.77;8.20;;;1.50;99.90;;;;;;6268368;22;20178;-85
2024/01/29 07:19:21;;;;;;;17.48;10.15;;;1.50;99.90;;;;;;6273373;22;20261;-85
2024/01/29 07:21:50;;;;;;;8.43;7.60;;;1.40;99.90;;;;;;6272260;23;20190;-85
2024/01/29 07:24:17;;;;;;;24.88;12.07;;;1.50;1.00;;;;;;6274296;22;20198;-86
2024/01/29 07:26:44;;;;;;;14.38;10.32;;;1.60;1.00;;;;;;6258430;22;20225;-87
2024/01/29 07:29:11;;;;;;;16.42;9.95;;;1.60;99.90;;;;;;6257532;23;20184;-86
2024/01/29 07:31:39;;;;;;;12.88;8.15;;;1.80;99.90;;;;;;6274866;23;20173;-89
2024/01/29 07:34:06;;;;;;;10.85;7.68;;;1.80;37.90;;;;;;6275830;22;20151;-87
2024/01/29 07:36:33;;;;;;;16.98;9.50;;;1.80;12.70;;;;;;6275389;23;20198;-87
2024/01/29 07:39:00;;;;;;;13.15;8.35;;;1.90;1.00;;;;;;6262158;23;20178;-89
2024/01/29 07:41:26;;;;;;;9.45;7.43;;;2.00;1.00;;;;;;6262263;23;20234;-88
2024/01/29 07:43:53;;;;;;;16.10;7.00;;;2.00;1.00;;;;;;6263691;23;20229;-88
2024/01/29 07:46:20;;;;;;;6.55;5.80;;;2.00;1.00;;;;;;6260759;23;20587;-87
2024/01/29 07:48:49;;;;;;;12.82;6.35;;;2.10;1.00;;;;;;6264614;23;20213;-88
2024/01/29 07:51:15;;;;;;;14.65;7.22;;;2.10;1.00;;;;;;6262585;23;20178;-87
2024/01/29 07:53:42;;;;;;;11.90;6.90;;;2.10;1.00;;;;;;6267995;23;20178;-89
2024/01/29 07:56:10;;;;;;;13.88;7.70;;;2.20;1.00;;;;;;6271982;23;20202;-87
2024/01/29 07:58:37;;;;;;;9.13;6.22;;;2.20;1.00;;;;;;6258773;23;20698;-87
2024/01/29 08:01:04;;;;;;;10.13;7.00;;;2.20;1.00;;;;;;6258526;23;20201;-87
2024/01/29 08:03:31;;;;;;;14.07;7.43;;;2.30;1.00;;;;;;6273466;22;20169;-86
2024/01/29 08:05:59;;;;;;;8.32;6.70;;;2.40;1.00;;;;;;6275306;22;20213;-88
2024/01/29 08:08:26;;;;;;;12.00;6.78;;;2.40;1.00;;;;;;6261341;23;20179;-89
2024/01/29 08:10:52;;;;;;;8.88;6.32;;;2.40;1.00;;;;;;6258770;23;20547;-88
2024/01/29 08:13:19;;;;;;;13.95;6.22;;;2.50;1.00;;;;;;6259172;23;20202;-88
2024/01/29 08:15:46;;;;;;;10.45;6.32;;;2.50;1.00;;;;;;6258924;23;20269;-87
2024/01/29 08:18:13;;;;;;;9.38;5.50;;;2.60;1.00;;;;;;6268427;23;20185;-89
2024/01/29 08:20:40;;;;;;;8.30;5.78;;;2.60;1.00;;;;;;6260292;23;20178;-88
2024/01/29 08:23:08;;;;;;;10.23;5.35;;;2.60;1.00;;;;;;6257167;23;20181;-88
2024/01/29 08:25:35;;;;;;;10.73;6.38;;;2.70;1.00;;;;;;6258992;23;20202;-88
2024/01/29 08:28:02;;;;;;;13.30;7.00;;;2.70;1.00;;;;;;6270129;23;20189;-88
2024/01/29 08:30:29;;;;;;;9.60;6.30;;;2.80;1.00;;;;;;6274265;23;20518;-87
2024/01/29 08:32:56;;;;;;;13.98;5.85;;;2.80;1.00;;;;;;6273866;23;20179;-89
2024/01/29 08:35:23;;;;;;;11.63;6.63;;;2.90;1.00;;;;;;6270152;23;20213;-88
2024/01/29 08:37:49;;;;;;;10.07;6.32;;;3.00;1.00;;;;;;6269464;23;20181;-87
2024/01/29 08:40:18;;;;;;;8.38;5.85;;;3.10;1.00;;;;;;6271890;23;20239;-88
2024/01/29 08:42:45;;;;;;;8.32;5.93;;;3.10;1.00;;;;;;6273205;23;20230;-89
2024/01/29 08:45:16;;;;;;;8.65;6.10;;;3.20;1.00;;;;;;6270225;23;20190;-89
2024/01/29 08:47:43;;;;;;;10.45;5.80;;;3.20;1.00;;;;;;6268881;23;20169;-89
2024/01/29 08:50:10;;;;;;;10.85;6.68;;;3.30;1.00;;;;;;6268725;23;20185;-88
2024/01/29 08:52:38;;;;;;;8.65;6.28;;;3.30;1.00;;;;;;6270943;23;20170;-89
2024/01/29 08:55:06;;;;;;;9.25;6.57;;;3.40;1.00;;;;;;6271445;23;20232;-87
2024/01/29 08:57:35;;;;;;;9.85;7.30;;;3.40;1.00;;;;;;6266576;23;20179;-88
2024/01/29 09:00:03;;;;;;;8.48;7.30;;;3.50;1.00;;;;;;6268991;23;20185;-88
2024/01/29 09:02:31;;;;;;;11.27;6.63;;;3.50;1.00;;;;;;6267962;23;20209;-88
2024/01/29 09:04:58;;;;;;;9.27;6.53;;;3.60;1.00;;;;;;6270308;23;20264;-87
2024/01/29 09:07:25;;;;;;;8.60;6.70;;;3.60;1.00;;;;;;6269241;23;20228;-88
2024/01/29 09:09:52;;;;;;;6.75;4.78;;;3.60;1.00;;;;;;6268143;23;20186;-88
2024/01/29 09:12:19;;;;;;;13.27;6.65;;;3.70;1.00;;;;;;6265237;23;20181;-88
2024/01/29 09:14:47;;;;;;;8.35;5.53;;;3.80;1.00;;;;;;6258356;23;20179;-88
2024/01/29 09:17:14;;;;;;;6.40;5.50;;;3.80;1.00;;;;;;6264127;23;20198;-87
2024/01/29 09:19:41;;;;;;;6.13;5.53;;;3.90;1.00;;;;;;6257238;23;20189;-88
2024/01/29 09:22:08;;;;;;;7.35;6.00;;;3.90;1.00;;;;;;6259190;23;20178;-87
2024/01/29 09:24:35;;;;;;;7.10;5.40;;;3.90;1.00;;;;;;6264339;23;20198;-88
2024/01/29 09:27:01;;;;;;;6.78;5.35;;;4.00;1.00;;;;;;6271689;22;20214;-86
2024/01/29 09:29:28;;;;;;;9.18;5.53;;;4.00;1.00;;;;;;6269106;23;20183;-87
2024/01/29 09:31:56;;;;;;;7.93;6.10;;;4.00;1.00;;;;;;6264817;23;20209;-88
2024/01/29 09:34:24;;;;;;;9.98;6.80;;;4.10;1.00;;;;;;6259071;23;20197;-87
2024/01/29 09:36:51;;;;;;;10.25;6.57;;;4.20;1.00;;;;;;6258638;23;20233;-87
2024/01/29 09:39:19;;;;;;;12.45;6.60;;;4.20;1.00;;;;;;6256996;23;20233;-87
2024/01/29 09:41:46;;;;;;;8.70;6.35;;;4.20;1.00;;;;;;6262834;23;20182;-88
2024/01/29 09:44:13;;;;;;;6.15;5.55;;;4.40;1.00;;;;;;6271004;23;20181;-88
2024/01/29 09:46:41;;;;;;;10.30;5.63;;;4.50;1.00;;;;;;6270499;23;20198;-88
2024/01/29 09:49:10;;;;;;;9.57;5.60;;;4.50;1.00;;;;;;6265546;23;20179;-89
2024/01/29 09:51:37;;;;;;;6.20;5.05;;;4.60;1.00;;;;;;6266983;23;20185;-86
2024/01/29 09:54:05;;;;;;;8.80;5.18;;;4.70;1.00;;;;;;6270099;23;20185;-87
2024/01/29 09:56:32;;;;;;;8.50;6.00;;;4.60;1.00;;;;;;6266363;23;20191;-86
2024/01/29 09:58:59;;;;;;;20.00;11.63;;;4.70;1.00;;;;;;6257054;23;20490;-88
2024/01/29 10:01:26;;;;;;;10.57;6.05;;;4.70;1.00;;;;;;6256693;23;20208;-86
2024/01/29 10:03:53;;;;;;;5.72;5.22;;;4.70;1.00;;;;;;6257861;23;20179;-87
2024/01/29 10:06:21;;;;;;;7.18;6.35;;;4.80;1.00;;;;;;6252617;23;20222;-86
2024/01/29 10:08:48;;;;;;;9.50;6.65;;;4.90;1.00;;;;;;6252808;23;20257;-87
2024/01/29 10:11:16;;;;;;;7.80;5.55;;;4.90;1.00;;;;;;6254555;23;20206;-89
2024/01/29 10:13:48;;;;;;;7.00;6.18;;;4.90;1.00;;;;;;6253631;23;20178;-87
2024/01/29 10:16:15;;;;;;;9.88;6.57;;;5.00;1.00;;;;;;6252543;23;20195;-88
2024/01/29 10:18:44;;;;;;;9.18;5.50;;;5.00;1.00;;;;;;6256511;23;20186;-87
2024/01/29 10:21:11;;;;;;;11.75;5.72;;;5.10;1.00;;;;;;6258267;23;20174;-88
2024/01/29 10:23:39;;;;;;;11.40;5.32;;;5.20;1.00;;;;;;6257308;23;20175;-87
2024/01/29 10:26:06;;;;;;;10.52;7.45;;;5.20;1.00;;;;;;6256264;23;20281;-88
2024/01/29 10:28:33;;;;;;;11.05;7.32;;;5.40;1.00;;;;;;6254733;23;20185;-86
2024/01/29 10:31:00;;;;;;;9.55;7.70;;;5.50;1.00;;;;;;6254976;23;20253;-87
2024/01/29 10:33:27;;;;;;;10.07;6.78;;;5.50;1.00;;;;;;6254422;23;20257;-87
2024/01/29 10:35:58;;;;;;;8.57;5.07;;;5.60;1.00;;;;;;6254015;23;20194;-89
2024/01/29 10:38:29;;;;;;;6.50;5.57;;;5.70;1.00;;;;;;6254322;23;20190;-88
2024/01/29 10:41:00;;;;;;;5.65;5.05;;;5.80;1.00;;;;;;6255038;23;20544;-88
2024/01/29 10:43:33;;;;;;;7.47;5.20;;;5.80;1.00;;;;;;6252349;23;20550;-88
2024/01/29 10:46:00;;;;;;;12.43;5.97;;;5.90;1.00;;;;;;6254649;23;20202;-87
2024/01/29 10:48:27;;;;;;;7.40;5.80;;;6.00;1.00;;;;;;6255902;23;20178;-89
2024/01/29 10:50:56;;;;;;;7.55;5.25;;;6.00;1.00;;;;;;6255417;23;20249;-87
2024/01/29 10:53:23;;;;;;;7.45;5.65;;;6.10;1.00;;;;;;6255581;23;20261;-87
2024/01/29 10:55:51;;;;;;;8.73;5.75;;;6.10;1.00;;;;;;6255458;23;20194;-88
2024/01/29 10:58:21;;;;;;;7.07;5.80;;;6.20;1.00;;;;;;6257528;23;20170;-87
2024/01/29 11:00:48;;;;;;;7.78;5.85;;;6.30;1.00;;;;;;6257083;23;20179;-87
2024/01/29 11:03:17;;;;;;;5.85;5.30;;;6.40;1.00;;;;;;6260316;23;20213;-89
2024/01/29 11:05:59;;;;;;;5.95;4.30;;;6.50;1.00;;;;;;6265799;23;20193;-88
2024/01/29 11:08:31;;;;;;;6.90;4.90;;;6.60;1.00;;;;;;6275444;23;20163;-88
2024/01/29 11:10:58;;;;;;;9.57;4.80;;;6.70;1.00;;;;;;6275744;23;20219;-87
2024/01/29 11:13:29;;;;;;;8.75;5.05;;;6.80;1.00;;;;;;6266501;23;20209;-86
2024/01/29 11:15:56;;;;;;;6.32;5.40;;;6.80;1.00;;;;;;6257229;23;20274;-87
2024/01/29 11:18:22;;;;;;;9.88;5.70;;;6.90;1.00;;;;;;6272619;22;20170;-87
2024/01/29 11:20:51;;;;;;;8.00;4.82;;;6.90;1.00;;;;;;6275969;22;20174;-87
2024/01/29 11:23:22;;;;;;;6.27;4.80;;;7.00;1.00;;;;;;6249590;23;20210;-87
2024/01/29 11:25:50;;;;;;;6.30;4.75;;;7.10;1.00;;;;;;6262020;23;20448;-87
2024/01/29 11:28:17;;;;;;;8.00;4.60;;;7.20;1.00;;;;;;6253533;23;20182;-87
2024/01/29 11:30:52;;;;;;;7.03;4.32;;;7.20;1.00;;;;;;6254210;23;20439;-87
2024/01/29 11:33:20;;;;;;;5.63;4.57;;;7.30;1.00;;;;;;6256736;23;20169;-87
2024/01/29 11:35:50;;;;;;;4.57;3.90;;;7.30;1.00;;;;;;6263420;23;20431;-87
2024/01/29 11:38:22;;;;;;;5.43;4.27;;;7.40;99.90;;;;;;6263942;23;20773;-87
2024/01/29 11:40:50;;;;;;;4.10;3.67;;;7.60;99.90;;;;;;6262854;23;20420;-87
2024/01/29 11:43:18;;;;;;;4.93;3.60;;;7.80;99.90;;;;;;6259318;23;20405;-86
2024/01/29 11:45:46;;;;;;;5.27;4.10;;;8.00;99.90;;;;;;6257114;23;20452;-86
2024/01/29 11:48:16;;;;;;;6.53;4.07;;;8.10;99.90;;;;;;6258283;23;20412;-87
2024/01/29 11:50:44;;;;;;;6.10;4.17;;;8.20;99.90;;;;;;6258168;23;20401;-86
2024/01/29 11:53:12;;;;;;;6.93;3.97;;;8.20;99.90;;;;;;6257600;23;20401;-87
2024/01/29 11:55:39;;;;;;;4.20;3.60;;;8.30;99.90;;;;;;6256730;23;20892;-86
2024/01/29 11:58:12;;;;;;;10.80;4.03;;;8.40;99.90;;;;;;6255376;23;20437;-87
2024/01/29 12:00:39;;;;;;;3.87;3.37;;;8.50;99.90;;;;;;6257457;23;20406;-87
2024/01/29 12:03:07;;;;;;;6.77;4.40;;;8.60;99.90;;;;;;6272436;23;20405;-87
2024/01/29 12:05:35;;;;;;;5.40;4.27;;;8.70;99.90;;;;;;6275381;23;20429;-87
2024/01/29 12:08:02;;;;;;;5.77;4.60;;;8.70;99.90;;;;;;6274251;23;20371;-86
2024/01/29 12:10:29;;;;;;;6.03;3.50;;;8.80;99.90;;;;;;6257253;23;20405;-87
2024/01/29 12:12:56;;;;;;;3.77;3.37;;;8.80;99.90;;;;;;6258852;23;20417;-87
2024/01/29 12:15:23;;;;;;;4.90;3.60;;;8.80;99.90;;;;;;6257076;23;20426;-86
2024/01/29 12:17:51;;;;;;;5.70;4.30;;;8.80;99.90;;;;;;6261606;23;20401;-87
2024/01/29 12:20:18;;;;;;;6.37;3.73;;;8.90;99.90;;;;;;6272163;23;20396;-88
2024/01/29 12:22:47;;;;;;;5.73;4.10;;;8.90;99.90;;;;;;6265623;23;20404;-87
2024/01/29 12:25:14;;;;;;;4.70;3.70;;;8.80;99.90;;;;;;6255893;23;20413;-88
2024/01/29 12:27:41;;;;;;;4.50;3.70;;;8.90;99.90;;;;;;6257193;23;20879;-86
2024/01/29 12:30:11;;;;;;;4.27;3.87;;;8.90;99.90;;;;;;6270231;23;20360;-86
2024/01/29 12:32:39;;;;;;;3.50;3.20;;;8.90;99.90;;;;;;6275264;22;20376;-86
2024/01/29 12:35:24;;;;;;;3.53;2.83;;;8.90;99.90;;;;;;6275636;22;20352;-87
2024/01/29 12:37:52;;;;;;;5.60;4.40;;;8.80;99.90;;;;;;6274138;22;20408;-86
2024/01/29 12:40:20;;;;;;;6.37;3.73;;;8.80;99.90;;;;;;6255904;23;20448;-86
2024/01/29 12:42:47;;;;;;;4.63;3.30;;;8.80;99.90;;;;;;6255062;23;20405;-87
2024/01/29 12:45:17;;;;;;;5.23;3.87;;;8.90;99.90;;;;;;6254309;23;20452;-87
2024/01/29 12:47:44;;;;;;;6.43;3.17;;;8.80;99.90;;;;;;6255787;23;20447;-88
2024/01/29 12:50:15;;;;;;;3.73;3.40;;;8.80;99.90;;;;;;6254922;23;20409;-87
2024/01/29 12:52:43;;;;;;;3.70;3.30;;;8.80;99.90;;;;;;6255655;23;20405;-87
2024/01/29 12:55:11;;;;;;;8.47;4.50;;;8.90;99.90;;;;;;6256570;23;20452;-86
2024/01/29 12:57:38;;;;;;;6.00;4.27;;;8.80;99.90;;;;;;6260357;22;20389;-87
2024/01/29 13:00:07;;;;;;;4.63;4.30;;;8.80;99.90;;;;;;6259908;22;20393;-87